sensor_id;sensor_type;location;lat;lon;timestamp;P1;durP1;ratioP1;P2;durP2;ratioP2
38264;SDS011;24062;47.480;8.768;2022-07-17T00:00:35;10.37;;;2.07;;
38264;SDS011;24062;47.480;8.768;2022-07-17T00:03:02;10.43;;;2.20;;
38264;SDS011;24062;47.480;8.768;2022-07-17T00:05:30;14.40;;;2.50;;
38264;SDS011;24062;47.480;8.768;2022-07-17T00:07:57;9.63;;;1.90;;
38264;SDS011;24062;47.480;8.768;2022-07-17T00:10:24;10.63;;;1.97;;
38264;SDS011;24062;47.480;8.768;2022-07-17T00:12:51;12.50;;;2.10;;
38264;SDS011;24062;47.480;8.768;2022-07-17T00:15:18;10.50;;;2.00;;
38264;SDS011;24062;47.480;8.768;2022-07-17T00:17:45;12.83;;;2.50;;
38264;SDS011;24062;47.480;8.768;2022-07-17T00:20:12;11.60;;;2.17;;
38264;SDS011;24062;47.480;8.768;2022-07-17T00:22:40;10.90;;;2.23;;
38264;SDS011;24062;47.480;8.768;2022-07-17T00:25:08;10.60;;;2.07;;
38264;SDS011;24062;47.480;8.768;2022-07-17T00:27:36;10.60;;;2.47;;
38264;SDS011;24062;47.480;8.768;2022-07-17T00:30:04;12.53;;;2.17;;
38264;SDS011;24062;47.480;8.768;2022-07-17T00:32:32;10.70;;;1.93;;
38264;SDS011;24062;47.480;8.768;2022-07-17T00:34:59;12.23;;;2.73;;
38264;SDS011;24062;47.480;8.768;2022-07-17T00:37:26;11.70;;;2.17;;
38264;SDS011;24062;47.480;8.768;2022-07-17T00:39:55;10.40;;;1.87;;
38264;SDS011;24062;47.480;8.768;2022-07-17T00:42:21;11.80;;;2.07;;
38264;SDS011;24062;47.480;8.768;2022-07-17T00:44:48;11.10;;;2.23;;
38264;SDS011;24062;47.480;8.768;2022-07-17T00:47:16;12.70;;;2.20;;
38264;SDS011;24062;47.480;8.768;2022-07-17T00:49:45;11.63;;;2.07;;
38264;SDS011;24062;47.480;8.768;2022-07-17T00:52:13;10.03;;;1.70;;
38264;SDS011;24062;47.480;8.768;2022-07-17T00:54:43;12.43;;;2.13;;
38264;SDS011;24062;47.480;8.768;2022-07-17T00:57:14;11.40;;;2.40;;
38264;SDS011;24062;47.480;8.768;2022-07-17T00:59:42;12.63;;;2.17;;
38264;SDS011;24062;47.480;8.768;2022-07-17T01:02:10;10.13;;;2.03;;
38264;SDS011;24062;47.480;8.768;2022-07-17T01:04:38;11.57;;;2.00;;
38264;SDS011;24062;47.480;8.768;2022-07-17T01:07:06;10.33;;;2.00;;
38264;SDS011;24062;47.480;8.768;2022-07-17T01:09:34;11.70;;;2.10;;
38264;SDS011;24062;47.480;8.768;2022-07-17T01:12:01;11.27;;;2.40;;
38264;SDS011;24062;47.480;8.768;2022-07-17T01:14:29;9.90;;;1.87;;
38264;SDS011;24062;47.480;8.768;2022-07-17T01:16:57;11.30;;;2.03;;
38264;SDS011;24062;47.480;8.768;2022-07-17T01:19:24;11.60;;;2.40;;
38264;SDS011;24062;47.480;8.768;2022-07-17T01:21:52;9.70;;;1.67;;
38264;SDS011;24062;47.480;8.768;2022-07-17T01:24:19;10.97;;;2.10;;
38264;SDS011;24062;47.480;8.768;2022-07-17T01:26:46;10.33;;;2.20;;
38264;SDS011;24062;47.480;8.768;2022-07-17T01:29:15;10.30;;;2.00;;
38264;SDS011;24062;47.480;8.768;2022-07-17T01:31:42;12.13;;;2.73;;
38264;SDS011;24062;47.480;8.768;2022-07-17T01:34:10;13.23;;;2.67;;
38264;SDS011;24062;47.480;8.768;2022-07-17T01:36:38;10.37;;;1.90;;
38264;SDS011;24062;47.480;8.768;2022-07-17T01:39:07;9.67;;;1.60;;
38264;SDS011;24062;47.480;8.768;2022-07-17T01:41:34;10.83;;;2.17;;
38264;SDS011;24062;47.480;8.768;2022-07-17T01:44:01;11.13;;;3.20;;
38264;SDS011;24062;47.480;8.768;2022-07-17T01:46:29;11.90;;;1.90;;
38264;SDS011;24062;47.480;8.768;2022-07-17T01:48:56;10.40;;;2.13;;
38264;SDS011;24062;47.480;8.768;2022-07-17T01:51:23;11.37;;;2.33;;
38264;SDS011;24062;47.480;8.768;2022-07-17T01:53:50;9.90;;;2.03;;
38264;SDS011;24062;47.480;8.768;2022-07-17T01:56:18;11.70;;;2.10;;
38264;SDS011;24062;47.480;8.768;2022-07-17T01:58:45;10.83;;;1.90;;
38264;SDS011;24062;47.480;8.768;2022-07-17T02:01:12;12.47;;;2.50;;
38264;SDS011;24062;47.480;8.768;2022-07-17T02:03:39;12.37;;;2.43;;
38264;SDS011;24062;47.480;8.768;2022-07-17T02:06:06;12.57;;;2.27;;
38264;SDS011;24062;47.480;8.768;2022-07-17T02:08:35;10.70;;;2.43;;
38264;SDS011;24062;47.480;8.768;2022-07-17T02:11:02;10.83;;;2.37;;
38264;SDS011;24062;47.480;8.768;2022-07-17T02:13:30;10.80;;;1.97;;
38264;SDS011;24062;47.480;8.768;2022-07-17T02:15:57;12.07;;;2.47;;
38264;SDS011;24062;47.480;8.768;2022-07-17T02:18:24;11.40;;;2.27;;
38264;SDS011;24062;47.480;8.768;2022-07-17T02:20:51;11.60;;;2.33;;
38264;SDS011;24062;47.480;8.768;2022-07-17T02:23:18;12.70;;;2.53;;
38264;SDS011;24062;47.480;8.768;2022-07-17T02:25:45;11.77;;;1.90;;
38264;SDS011;24062;47.480;8.768;2022-07-17T02:28:12;11.47;;;2.30;;
38264;SDS011;24062;47.480;8.768;2022-07-17T02:30:40;10.83;;;2.27;;
38264;SDS011;24062;47.480;8.768;2022-07-17T02:33:07;15.33;;;2.70;;
38264;SDS011;24062;47.480;8.768;2022-07-17T02:35:34;12.07;;;2.47;;
38264;SDS011;24062;47.480;8.768;2022-07-17T02:38:00;11.03;;;2.60;;
38264;SDS011;24062;47.480;8.768;2022-07-17T02:40:27;25.17;;;2.70;;
38264;SDS011;24062;47.480;8.768;2022-07-17T02:42:54;10.63;;;2.40;;
38264;SDS011;24062;47.480;8.768;2022-07-17T02:45:21;12.23;;;2.43;;
38264;SDS011;24062;47.480;8.768;2022-07-17T02:47:52;12.70;;;2.67;;
38264;SDS011;24062;47.480;8.768;2022-07-17T02:50:19;11.07;;;2.37;;
38264;SDS011;24062;47.480;8.768;2022-07-17T02:52:47;10.90;;;2.10;;
38264;SDS011;24062;47.480;8.768;2022-07-17T02:55:14;10.47;;;2.20;;
38264;SDS011;24062;47.480;8.768;2022-07-17T02:57:41;10.40;;;2.23;;
38264;SDS011;24062;47.480;8.768;2022-07-17T03:00:10;11.83;;;2.23;;
38264;SDS011;24062;47.480;8.768;2022-07-17T03:02:40;10.60;;;2.03;;
38264;SDS011;24062;47.480;8.768;2022-07-17T03:05:08;13.00;;;2.73;;
38264;SDS011;24062;47.480;8.768;2022-07-17T03:07:36;12.53;;;2.93;;
38264;SDS011;24062;47.480;8.768;2022-07-17T03:10:03;10.10;;;2.40;;
38264;SDS011;24062;47.480;8.768;2022-07-17T03:12:31;11.27;;;2.90;;
38264;SDS011;24062;47.480;8.768;2022-07-17T03:14:58;11.10;;;2.20;;
38264;SDS011;24062;47.480;8.768;2022-07-17T03:17:25;10.73;;;2.50;;
38264;SDS011;24062;47.480;8.768;2022-07-17T03:19:51;11.10;;;2.63;;
38264;SDS011;24062;47.480;8.768;2022-07-17T03:22:20;10.33;;;2.63;;
38264;SDS011;24062;47.480;8.768;2022-07-17T03:24:47;12.17;;;2.60;;
38264;SDS011;24062;47.480;8.768;2022-07-17T03:27:14;11.60;;;2.80;;
38264;SDS011;24062;47.480;8.768;2022-07-17T03:29:41;10.30;;;2.40;;
38264;SDS011;24062;47.480;8.768;2022-07-17T03:32:08;11.73;;;2.70;;
38264;SDS011;24062;47.480;8.768;2022-07-17T03:34:35;11.70;;;2.50;;
38264;SDS011;24062;47.480;8.768;2022-07-17T03:37:02;11.13;;;2.47;;
38264;SDS011;24062;47.480;8.768;2022-07-17T03:39:31;10.83;;;2.40;;
38264;SDS011;24062;47.480;8.768;2022-07-17T03:41:58;10.80;;;2.30;;
38264;SDS011;24062;47.480;8.768;2022-07-17T03:44:25;9.90;;;2.20;;
38264;SDS011;24062;47.480;8.768;2022-07-17T03:46:52;10.50;;;2.47;;
38264;SDS011;24062;47.480;8.768;2022-07-17T03:49:19;11.13;;;2.57;;
38264;SDS011;24062;47.480;8.768;2022-07-17T03:51:46;12.03;;;2.50;;
38264;SDS011;24062;47.480;8.768;2022-07-17T03:54:12;10.60;;;2.93;;
38264;SDS011;24062;47.480;8.768;2022-07-17T03:56:41;10.93;;;2.50;;
38264;SDS011;24062;47.480;8.768;2022-07-17T03:59:08;11.90;;;3.20;;
38264;SDS011;24062;47.480;8.768;2022-07-17T04:01:34;10.83;;;2.70;;
38264;SDS011;24062;47.480;8.768;2022-07-17T04:04:01;11.40;;;2.70;;
38264;SDS011;24062;47.480;8.768;2022-07-17T04:06:28;10.50;;;2.63;;
38264;SDS011;24062;47.480;8.768;2022-07-17T04:08:55;11.27;;;2.73;;
38264;SDS011;24062;47.480;8.768;2022-07-17T04:11:22;12.00;;;2.67;;
38264;SDS011;24062;47.480;8.768;2022-07-17T04:13:50;13.63;;;3.40;;
38264;SDS011;24062;47.480;8.768;2022-07-17T04:16:17;10.97;;;2.70;;
38264;SDS011;24062;47.480;8.768;2022-07-17T04:18:44;13.47;;;2.80;;
38264;SDS011;24062;47.480;8.768;2022-07-17T04:21:11;11.87;;;2.97;;
38264;SDS011;24062;47.480;8.768;2022-07-17T04:23:39;11.53;;;2.90;;
38264;SDS011;24062;47.480;8.768;2022-07-17T04:26:06;11.33;;;2.80;;
38264;SDS011;24062;47.480;8.768;2022-07-17T04:28:33;11.40;;;2.70;;
38264;SDS011;24062;47.480;8.768;2022-07-17T04:31:01;11.13;;;2.77;;
38264;SDS011;24062;47.480;8.768;2022-07-17T04:33:28;11.53;;;3.30;;
38264;SDS011;24062;47.480;8.768;2022-07-17T04:35:55;11.33;;;2.73;;
38264;SDS011;24062;47.480;8.768;2022-07-17T04:38:22;11.10;;;2.40;;
38264;SDS011;24062;47.480;8.768;2022-07-17T04:40:49;10.43;;;2.40;;
38264;SDS011;24062;47.480;8.768;2022-07-17T04:43:16;11.57;;;2.83;;
38264;SDS011;24062;47.480;8.768;2022-07-17T04:45:43;14.33;;;2.87;;
38264;SDS011;24062;47.480;8.768;2022-07-17T04:48:11;12.73;;;2.57;;
38264;SDS011;24062;47.480;8.768;2022-07-17T04:50:38;10.57;;;2.67;;
38264;SDS011;24062;47.480;8.768;2022-07-17T04:53:05;11.37;;;2.70;;
38264;SDS011;24062;47.480;8.768;2022-07-17T04:55:33;11.07;;;2.40;;
38264;SDS011;24062;47.480;8.768;2022-07-17T04:58:00;12.87;;;2.57;;
38264;SDS011;24062;47.480;8.768;2022-07-17T05:00:26;11.03;;;2.57;;
38264;SDS011;24062;47.480;8.768;2022-07-17T05:02:53;10.53;;;2.53;;
38264;SDS011;24062;47.480;8.768;2022-07-17T05:05:22;11.93;;;3.00;;
38264;SDS011;24062;47.480;8.768;2022-07-17T05:07:50;11.27;;;2.33;;
38264;SDS011;24062;47.480;8.768;2022-07-17T05:10:17;11.70;;;2.40;;
38264;SDS011;24062;47.480;8.768;2022-07-17T05:12:44;12.60;;;2.53;;
38264;SDS011;24062;47.480;8.768;2022-07-17T05:15:10;11.53;;;2.10;;
38264;SDS011;24062;47.480;8.768;2022-07-17T05:17:38;11.20;;;2.50;;
38264;SDS011;24062;47.480;8.768;2022-07-17T05:20:06;12.40;;;3.13;;
38264;SDS011;24062;47.480;8.768;2022-07-17T05:22:35;12.50;;;2.40;;
38264;SDS011;24062;47.480;8.768;2022-07-17T05:25:02;11.17;;;2.60;;
38264;SDS011;24062;47.480;8.768;2022-07-17T05:27:29;24.80;;;3.73;;
38264;SDS011;24062;47.480;8.768;2022-07-17T05:29:56;12.70;;;2.43;;
38264;SDS011;24062;47.480;8.768;2022-07-17T05:32:23;11.37;;;3.00;;
38264;SDS011;24062;47.480;8.768;2022-07-17T05:34:50;12.43;;;3.17;;
38264;SDS011;24062;47.480;8.768;2022-07-17T05:37:17;13.00;;;3.00;;
38264;SDS011;24062;47.480;8.768;2022-07-17T05:39:45;12.33;;;3.00;;
38264;SDS011;24062;47.480;8.768;2022-07-17T05:42:12;10.93;;;2.70;;
38264;SDS011;24062;47.480;8.768;2022-07-17T05:44:39;13.67;;;2.43;;
38264;SDS011;24062;47.480;8.768;2022-07-17T05:47:06;14.30;;;3.33;;
38264;SDS011;24062;47.480;8.768;2022-07-17T05:49:33;12.63;;;2.67;;
38264;SDS011;24062;47.480;8.768;2022-07-17T05:52:01;12.70;;;2.93;;
38264;SDS011;24062;47.480;8.768;2022-07-17T05:54:27;10.70;;;2.37;;
38264;SDS011;24062;47.480;8.768;2022-07-17T05:56:56;11.90;;;3.00;;
38264;SDS011;24062;47.480;8.768;2022-07-17T05:59:23;13.87;;;3.00;;
38264;SDS011;24062;47.480;8.768;2022-07-17T06:01:50;16.20;;;2.43;;
38264;SDS011;24062;47.480;8.768;2022-07-17T06:04:17;11.10;;;2.60;;
38264;SDS011;24062;47.480;8.768;2022-07-17T06:06:44;13.17;;;3.00;;
38264;SDS011;24062;47.480;8.768;2022-07-17T06:09:10;13.93;;;3.10;;
38264;SDS011;24062;47.480;8.768;2022-07-17T06:11:37;12.53;;;2.80;;
38264;SDS011;24062;47.480;8.768;2022-07-17T06:14:05;12.07;;;2.43;;
38264;SDS011;24062;47.480;8.768;2022-07-17T06:16:32;13.00;;;2.93;;
38264;SDS011;24062;47.480;8.768;2022-07-17T06:18:59;13.20;;;2.90;;
38264;SDS011;24062;47.480;8.768;2022-07-17T06:21:27;12.47;;;2.80;;
38264;SDS011;24062;47.480;8.768;2022-07-17T06:23:54;12.80;;;2.90;;
38264;SDS011;24062;47.480;8.768;2022-07-17T06:26:21;16.37;;;2.57;;
38264;SDS011;24062;47.480;8.768;2022-07-17T06:28:48;12.93;;;2.90;;
38264;SDS011;24062;47.480;8.768;2022-07-17T06:31:16;12.00;;;2.30;;
38264;SDS011;24062;47.480;8.768;2022-07-17T06:33:43;12.40;;;2.40;;
38264;SDS011;24062;47.480;8.768;2022-07-17T06:36:10;13.17;;;3.03;;
38264;SDS011;24062;47.480;8.768;2022-07-17T06:38:37;10.83;;;2.10;;
38264;SDS011;24062;47.480;8.768;2022-07-17T06:41:04;10.10;;;1.83;;
38264;SDS011;24062;47.480;8.768;2022-07-17T06:43:30;12.83;;;2.23;;
38264;SDS011;24062;47.480;8.768;2022-07-17T06:45:57;11.10;;;1.83;;
38264;SDS011;24062;47.480;8.768;2022-07-17T06:48:26;12.50;;;2.17;;
38264;SDS011;24062;47.480;8.768;2022-07-17T06:50:53;11.97;;;2.33;;
38264;SDS011;24062;47.480;8.768;2022-07-17T06:53:19;12.17;;;2.10;;
38264;SDS011;24062;47.480;8.768;2022-07-17T06:55:47;15.93;;;2.23;;
38264;SDS011;24062;47.480;8.768;2022-07-17T06:58:13;14.57;;;2.50;;
38264;SDS011;24062;47.480;8.768;2022-07-17T07:00:40;12.40;;;2.57;;
38264;SDS011;24062;47.480;8.768;2022-07-17T07:03:07;11.60;;;2.30;;
38264;SDS011;24062;47.480;8.768;2022-07-17T07:05:36;11.17;;;1.83;;
38264;SDS011;24062;47.480;8.768;2022-07-17T07:08:03;13.93;;;2.00;;
38264;SDS011;24062;47.480;8.768;2022-07-17T07:10:30;12.60;;;2.30;;
38264;SDS011;24062;47.480;8.768;2022-07-17T07:12:57;15.40;;;2.97;;
38264;SDS011;24062;47.480;8.768;2022-07-17T07:15:24;11.00;;;2.37;;
38264;SDS011;24062;47.480;8.768;2022-07-17T07:17:52;13.33;;;2.70;;
38264;SDS011;24062;47.480;8.768;2022-07-17T07:20:19;14.30;;;2.40;;
38264;SDS011;24062;47.480;8.768;2022-07-17T07:22:47;13.50;;;2.37;;
38264;SDS011;24062;47.480;8.768;2022-07-17T07:25:14;11.50;;;2.07;;
38264;SDS011;24062;47.480;8.768;2022-07-17T07:27:41;11.20;;;1.83;;
38264;SDS011;24062;47.480;8.768;2022-07-17T07:30:08;12.27;;;2.50;;
38264;SDS011;24062;47.480;8.768;2022-07-17T07:32:35;12.67;;;2.57;;
38264;SDS011;24062;47.480;8.768;2022-07-17T07:35:03;12.70;;;2.30;;
38264;SDS011;24062;47.480;8.768;2022-07-17T07:37:30;10.60;;;1.90;;
38264;SDS011;24062;47.480;8.768;2022-07-17T07:39:59;14.27;;;2.40;;
38264;SDS011;24062;47.480;8.768;2022-07-17T07:42:27;11.00;;;2.20;;
38264;SDS011;24062;47.480;8.768;2022-07-17T07:44:54;13.10;;;2.40;;
38264;SDS011;24062;47.480;8.768;2022-07-17T07:47:20;14.20;;;2.20;;
38264;SDS011;24062;47.480;8.768;2022-07-17T07:49:47;16.67;;;2.30;;
38264;SDS011;24062;47.480;8.768;2022-07-17T07:52:14;12.43;;;2.30;;
38264;SDS011;24062;47.480;8.768;2022-07-17T07:54:41;13.37;;;2.03;;
38264;SDS011;24062;47.480;8.768;2022-07-17T07:57:10;10.50;;;1.93;;
38264;SDS011;24062;47.480;8.768;2022-07-17T07:59:36;13.47;;;2.30;;
38264;SDS011;24062;47.480;8.768;2022-07-17T08:02:04;15.60;;;2.37;;
38264;SDS011;24062;47.480;8.768;2022-07-17T08:04:31;14.97;;;2.10;;
38264;SDS011;24062;47.480;8.768;2022-07-17T08:06:57;12.13;;;2.07;;
38264;SDS011;24062;47.480;8.768;2022-07-17T08:09:24;10.30;;;1.90;;
38264;SDS011;24062;47.480;8.768;2022-07-17T08:11:51;11.70;;;1.93;;
38264;SDS011;24062;47.480;8.768;2022-07-17T08:14:20;11.97;;;2.37;;
38264;SDS011;24062;47.480;8.768;2022-07-17T08:16:47;11.53;;;1.70;;
38264;SDS011;24062;47.480;8.768;2022-07-17T08:19:13;12.37;;;2.17;;
38264;SDS011;24062;47.480;8.768;2022-07-17T08:21:40;10.90;;;1.83;;
38264;SDS011;24062;47.480;8.768;2022-07-17T08:24:07;13.20;;;2.20;;
38264;SDS011;24062;47.480;8.768;2022-07-17T08:26:34;13.40;;;2.30;;
38264;SDS011;24062;47.480;8.768;2022-07-17T08:29:01;12.30;;;2.23;;
38264;SDS011;24062;47.480;8.768;2022-07-17T08:31:29;13.23;;;2.20;;
38264;SDS011;24062;47.480;8.768;2022-07-17T08:33:56;12.10;;;2.27;;
38264;SDS011;24062;47.480;8.768;2022-07-17T08:36:23;13.10;;;2.00;;
38264;SDS011;24062;47.480;8.768;2022-07-17T08:38:50;14.90;;;1.87;;
38264;SDS011;24062;47.480;8.768;2022-07-17T08:41:17;12.63;;;2.50;;
38264;SDS011;24062;47.480;8.768;2022-07-17T08:43:47;12.63;;;2.20;;
38264;SDS011;24062;47.480;8.768;2022-07-17T08:46:16;16.00;;;2.30;;
38264;SDS011;24062;47.480;8.768;2022-07-17T08:48:45;11.60;;;1.80;;
38264;SDS011;24062;47.480;8.768;2022-07-17T08:51:14;10.27;;;1.80;;
38264;SDS011;24062;47.480;8.768;2022-07-17T08:53:43;14.03;;;2.30;;
38264;SDS011;24062;47.480;8.768;2022-07-17T08:56:10;11.87;;;2.00;;
38264;SDS011;24062;47.480;8.768;2022-07-17T08:58:37;12.47;;;2.17;;
38264;SDS011;24062;47.480;8.768;2022-07-17T09:01:04;17.90;;;2.37;;
38264;SDS011;24062;47.480;8.768;2022-07-17T09:03:32;11.57;;;2.10;;
38264;SDS011;24062;47.480;8.768;2022-07-17T09:06:00;13.50;;;2.00;;
38264;SDS011;24062;47.480;8.768;2022-07-17T09:08:27;10.97;;;1.57;;
38264;SDS011;24062;47.480;8.768;2022-07-17T09:10:57;13.37;;;2.63;;
38264;SDS011;24062;47.480;8.768;2022-07-17T09:13:26;13.57;;;2.00;;
38264;SDS011;24062;47.480;8.768;2022-07-17T09:15:56;15.00;;;2.30;;
38264;SDS011;24062;47.480;8.768;2022-07-17T09:18:23;11.53;;;2.10;;
38264;SDS011;24062;47.480;8.768;2022-07-17T09:20:51;13.00;;;2.40;;
38264;SDS011;24062;47.480;8.768;2022-07-17T09:23:21;10.27;;;1.80;;
38264;SDS011;24062;47.480;8.768;2022-07-17T09:25:51;15.33;;;2.23;;
38264;SDS011;24062;47.480;8.768;2022-07-17T09:28:19;11.77;;;2.03;;
38264;SDS011;24062;47.480;8.768;2022-07-17T09:30:48;12.47;;;1.77;;
38264;SDS011;24062;47.480;8.768;2022-07-17T09:33:17;12.73;;;2.00;;
38264;SDS011;24062;47.480;8.768;2022-07-17T09:35:46;13.30;;;2.20;;
38264;SDS011;24062;47.480;8.768;2022-07-17T09:38:25;13.70;;;2.00;;
38264;SDS011;24062;47.480;8.768;2022-07-17T09:41:04;12.30;;;1.53;;
38264;SDS011;24062;47.480;8.768;2022-07-17T09:43:39;13.13;;;2.17;;
38264;SDS011;24062;47.480;8.768;2022-07-17T09:46:09;11.90;;;1.73;;
38264;SDS011;24062;47.480;8.768;2022-07-17T09:48:41;12.67;;;2.50;;
38264;SDS011;24062;47.480;8.768;2022-07-17T09:51:13;11.70;;;1.63;;
38264;SDS011;24062;47.480;8.768;2022-07-17T09:53:46;13.97;;;2.27;;
38264;SDS011;24062;47.480;8.768;2022-07-17T09:56:14;12.00;;;1.70;;
38264;SDS011;24062;47.480;8.768;2022-07-17T09:58:44;11.50;;;1.60;;
38264;SDS011;24062;47.480;8.768;2022-07-17T10:01:14;13.00;;;1.90;;
38264;SDS011;24062;47.480;8.768;2022-07-17T10:03:42;12.50;;;1.80;;
38264;SDS011;24062;47.480;8.768;2022-07-17T10:06:09;17.23;;;2.47;;
38264;SDS011;24062;47.480;8.768;2022-07-17T10:08:37;10.10;;;1.70;;
38264;SDS011;24062;47.480;8.768;2022-07-17T10:11:06;10.43;;;1.57;;
38264;SDS011;24062;47.480;8.768;2022-07-17T10:13:35;13.27;;;2.10;;
38264;SDS011;24062;47.480;8.768;2022-07-17T10:16:03;12.63;;;1.57;;
38264;SDS011;24062;47.480;8.768;2022-07-17T10:18:34;10.90;;;1.60;;
38264;SDS011;24062;47.480;8.768;2022-07-17T10:21:11;14.30;;;1.70;;
38264;SDS011;24062;47.480;8.768;2022-07-17T10:23:40;11.90;;;1.63;;
38264;SDS011;24062;47.480;8.768;2022-07-17T10:26:09;12.47;;;1.70;;
38264;SDS011;24062;47.480;8.768;2022-07-17T10:28:46;12.23;;;1.80;;
38264;SDS011;24062;47.480;8.768;2022-07-17T10:31:23;11.13;;;1.77;;
38264;SDS011;24062;47.480;8.768;2022-07-17T10:33:54;13.90;;;2.27;;
38264;SDS011;24062;47.480;8.768;2022-07-17T10:36:31;13.00;;;1.70;;
38264;SDS011;24062;47.480;8.768;2022-07-17T10:39:12;13.03;;;2.10;;
38264;SDS011;24062;47.480;8.768;2022-07-17T10:41:41;10.80;;;1.93;;
38264;SDS011;24062;47.480;8.768;2022-07-17T10:44:23;11.60;;;1.50;;
38264;SDS011;24062;47.480;8.768;2022-07-17T10:46:51;12.70;;;2.10;;
38264;SDS011;24062;47.480;8.768;2022-07-17T10:49:18;10.67;;;1.53;;
38264;SDS011;24062;47.480;8.768;2022-07-17T10:51:45;10.07;;;1.50;;
38264;SDS011;24062;47.480;8.768;2022-07-17T10:54:12;15.33;;;2.07;;
38264;SDS011;24062;47.480;8.768;2022-07-17T10:56:40;11.33;;;2.00;;
38264;SDS011;24062;47.480;8.768;2022-07-17T10:59:09;12.43;;;1.63;;
38264;SDS011;24062;47.480;8.768;2022-07-17T11:01:36;11.40;;;1.80;;
38264;SDS011;24062;47.480;8.768;2022-07-17T11:04:04;11.33;;;1.63;;
38264;SDS011;24062;47.480;8.768;2022-07-17T11:06:33;11.60;;;2.27;;
38264;SDS011;24062;47.480;8.768;2022-07-17T11:09:04;14.50;;;2.10;;
38264;SDS011;24062;47.480;8.768;2022-07-17T11:11:37;12.23;;;2.17;;
38264;SDS011;24062;47.480;8.768;2022-07-17T11:14:10;14.73;;;1.80;;
38264;SDS011;24062;47.480;8.768;2022-07-17T11:16:43;12.93;;;1.97;;
38264;SDS011;24062;47.480;8.768;2022-07-17T11:19:19;11.37;;;2.00;;
38264;SDS011;24062;47.480;8.768;2022-07-17T11:21:47;12.07;;;1.70;;
38264;SDS011;24062;47.480;8.768;2022-07-17T11:24:15;10.73;;;1.70;;
38264;SDS011;24062;47.480;8.768;2022-07-17T11:26:42;10.82;;;1.75;;
38264;SDS011;24062;47.480;8.768;2022-07-17T11:29:11;14.43;;;2.00;;
38264;SDS011;24062;47.480;8.768;2022-07-17T11:31:40;12.65;;;2.17;;
38264;SDS011;24062;47.480;8.768;2022-07-17T11:34:07;10.90;;;1.50;;
38264;SDS011;24062;47.480;8.768;2022-07-17T11:36:37;11.15;;;1.75;;
38264;SDS011;24062;47.480;8.768;2022-07-17T11:39:07;12.93;;;1.80;;
38264;SDS011;24062;47.480;8.768;2022-07-17T11:41:36;13.98;;;2.17;;
38264;SDS011;24062;47.480;8.768;2022-07-17T11:44:04;11.57;;;2.05;;
38264;SDS011;24062;47.480;8.768;2022-07-17T11:46:34;11.27;;;2.10;;
38264;SDS011;24062;47.480;8.768;2022-07-17T11:49:01;10.60;;;1.77;;
38264;SDS011;24062;47.480;8.768;2022-07-17T11:51:35;10.68;;;1.75;;
38264;SDS011;24062;47.480;8.768;2022-07-17T11:54:04;10.85;;;1.80;;
38264;SDS011;24062;47.480;8.768;2022-07-17T11:56:32;14.77;;;1.67;;
38264;SDS011;24062;47.480;8.768;2022-07-17T11:58:59;12.10;;;1.88;;
38264;SDS011;24062;47.480;8.768;2022-07-17T12:01:28;11.45;;;2.10;;
38264;SDS011;24062;47.480;8.768;2022-07-17T12:03:58;13.75;;;2.10;;
38264;SDS011;24062;47.480;8.768;2022-07-17T12:06:25;11.93;;;1.77;;
38264;SDS011;24062;47.480;8.768;2022-07-17T12:08:53;12.23;;;2.03;;
38264;SDS011;24062;47.480;8.768;2022-07-17T12:11:20;12.90;;;1.98;;
38264;SDS011;24062;47.480;8.768;2022-07-17T12:13:47;10.73;;;1.73;;
38264;SDS011;24062;47.480;8.768;2022-07-17T12:16:25;11.80;;;1.77;;
38264;SDS011;24062;47.480;8.768;2022-07-17T12:18:59;17.20;;;2.10;;
38264;SDS011;24062;47.480;8.768;2022-07-17T12:21:34;10.75;;;1.80;;
38264;SDS011;24062;47.480;8.768;2022-07-17T12:24:17;14.43;;;2.30;;
38264;SDS011;24062;47.480;8.768;2022-07-17T12:26:45;12.55;;;1.80;;
38264;SDS011;24062;47.480;8.768;2022-07-17T12:29:12;12.77;;;2.15;;
38264;SDS011;24062;47.480;8.768;2022-07-17T12:31:39;14.77;;;1.95;;
38264;SDS011;24062;47.480;8.768;2022-07-17T12:34:07;14.55;;;2.10;;
38264;SDS011;24062;47.480;8.768;2022-07-17T12:36:34;10.55;;;1.80;;
38264;SDS011;24062;47.480;8.768;2022-07-17T12:39:01;12.77;;;2.10;;
38264;SDS011;24062;47.480;8.768;2022-07-17T12:41:28;12.68;;;2.08;;
38264;SDS011;24062;47.480;8.768;2022-07-17T12:43:55;12.57;;;1.90;;
38264;SDS011;24062;47.480;8.768;2022-07-17T12:46:22;11.30;;;1.70;;
38264;SDS011;24062;47.480;8.768;2022-07-17T12:48:49;13.30;;;1.80;;
38264;SDS011;24062;47.480;8.768;2022-07-17T12:51:17;12.82;;;1.90;;
38264;SDS011;24062;47.480;8.768;2022-07-17T12:53:44;12.70;;;1.90;;
38264;SDS011;24062;47.480;8.768;2022-07-17T12:56:11;12.98;;;2.15;;
38264;SDS011;24062;47.480;8.768;2022-07-17T12:58:38;10.73;;;1.73;;
38264;SDS011;24062;47.480;8.768;2022-07-17T13:01:05;10.63;;;2.00;;
38264;SDS011;24062;47.480;8.768;2022-07-17T13:03:32;11.95;;;1.80;;
38264;SDS011;24062;47.480;8.768;2022-07-17T13:05:59;11.55;;;1.52;;
38264;SDS011;24062;47.480;8.768;2022-07-17T13:08:28;10.30;;;1.33;;
38264;SDS011;24062;47.480;8.768;2022-07-17T13:10:56;12.20;;;1.67;;
38264;SDS011;24062;47.480;8.768;2022-07-17T13:13:23;11.10;;;1.63;;
38264;SDS011;24062;47.480;8.768;2022-07-17T13:15:50;12.80;;;1.60;;
38264;SDS011;24062;47.480;8.768;2022-07-17T13:18:17;11.75;;;1.90;;
38264;SDS011;24062;47.480;8.768;2022-07-17T13:20:44;14.02;;;2.00;;
38264;SDS011;24062;47.480;8.768;2022-07-17T13:23:11;11.00;;;1.70;;
38264;SDS011;24062;47.480;8.768;2022-07-17T13:25:40;10.63;;;1.75;;
38264;SDS011;24062;47.480;8.768;2022-07-17T13:28:08;11.38;;;1.63;;
38264;SDS011;24062;47.480;8.768;2022-07-17T13:30:35;11.00;;;1.73;;
38264;SDS011;24062;47.480;8.768;2022-07-17T13:33:02;11.60;;;1.55;;
38264;SDS011;24062;47.480;8.768;2022-07-17T13:35:29;12.82;;;1.73;;
38264;SDS011;24062;47.480;8.768;2022-07-17T13:37:56;10.27;;;1.50;;
38264;SDS011;24062;47.480;8.768;2022-07-17T13:40:26;10.75;;;1.48;;
38264;SDS011;24062;47.480;8.768;2022-07-17T13:42:55;10.90;;;1.80;;
38264;SDS011;24062;47.480;8.768;2022-07-17T13:45:22;10.40;;;1.70;;
38264;SDS011;24062;47.480;8.768;2022-07-17T13:47:49;10.45;;;1.55;;
38264;SDS011;24062;47.480;8.768;2022-07-17T13:50:17;10.48;;;1.70;;
38264;SDS011;24062;47.480;8.768;2022-07-17T13:52:44;12.10;;;1.83;;
38264;SDS011;24062;47.480;8.768;2022-07-17T13:55:11;11.68;;;1.60;;
38264;SDS011;24062;47.480;8.768;2022-07-17T13:57:39;11.13;;;1.70;;
38264;SDS011;24062;47.480;8.768;2022-07-17T14:00:08;11.27;;;1.90;;
38264;SDS011;24062;47.480;8.768;2022-07-17T14:02:36;11.25;;;1.65;;
38264;SDS011;24062;47.480;8.768;2022-07-17T14:05:04;9.63;;;1.48;;
38264;SDS011;24062;47.480;8.768;2022-07-17T14:07:33;10.98;;;1.50;;
38264;SDS011;24062;47.480;8.768;2022-07-17T14:10:00;10.38;;;1.80;;
38264;SDS011;24062;47.480;8.768;2022-07-17T14:12:27;11.75;;;1.90;;
38264;SDS011;24062;47.480;8.768;2022-07-17T14:14:54;26.75;;;2.28;;
38264;SDS011;24062;47.480;8.768;2022-07-17T14:17:22;10.10;;;1.80;;
38264;SDS011;24062;47.480;8.768;2022-07-17T14:19:49;12.38;;;1.65;;
38264;SDS011;24062;47.480;8.768;2022-07-17T14:22:16;10.93;;;1.80;;
38264;SDS011;24062;47.480;8.768;2022-07-17T14:24:43;11.45;;;1.58;;
38264;SDS011;24062;47.480;8.768;2022-07-17T14:27:10;10.85;;;1.83;;
38264;SDS011;24062;47.480;8.768;2022-07-17T14:29:36;14.85;;;1.88;;
38264;SDS011;24062;47.480;8.768;2022-07-17T14:32:04;10.77;;;1.77;;
38264;SDS011;24062;47.480;8.768;2022-07-17T14:34:33;11.73;;;1.60;;
38264;SDS011;24062;47.480;8.768;2022-07-17T14:37:00;11.77;;;1.60;;
38264;SDS011;24062;47.480;8.768;2022-07-17T14:39:28;10.88;;;1.77;;